sensor_id;sensor_type;location;lat;lon;timestamp;temperature;humidity
10702;DHT22;5402;50.004;8.246;2023-04-25T00:02:01;7.80;99.90
10702;DHT22;5402;50.004;8.246;2023-04-25T00:04:28;7.80;99.90
10702;DHT22;5402;50.004;8.246;2023-04-25T00:06:59;7.70;99.90
10702;DHT22;5402;50.004;8.246;2023-04-25T00:09:28;7.70;99.90
10702;DHT22;5402;50.004;8.246;2023-04-25T00:11:55;7.60;99.90
10702;DHT22;5402;50.004;8.246;2023-04-25T00:14:23;7.60;99.90
10702;DHT22;5402;50.004;8.246;2023-04-25T00:16:49;7.70;99.90
10702;DHT22;5402;50.004;8.246;2023-04-25T00:19:17;7.70;99.90
10702;DHT22;5402;50.004;8.246;2023-04-25T00:21:43;7.70;99.90
10702;DHT22;5402;50.004;8.246;2023-04-25T00:24:12;7.70;99.90
10702;DHT22;5402;50.004;8.246;2023-04-25T00:26:40;7.70;99.90
10702;DHT22;5402;50.004;8.246;2023-04-25T00:29:06;7.70;99.90
10702;DHT22;5402;50.004;8.246;2023-04-25T00:31:33;7.70;99.90
10702;DHT22;5402;50.004;8.246;2023-04-25T00:34:00;7.70;99.90
10702;DHT22;5402;50.004;8.246;2023-04-25T00:36:27;7.70;99.90
10702;DHT22;5402;50.004;8.246;2023-04-25T00:38:53;7.70;99.90
10702;DHT22;5402;50.004;8.246;2023-04-25T00:41:24;7.70;99.90
10702;DHT22;5402;50.004;8.246;2023-04-25T00:43:54;7.70;99.90
10702;DHT22;5402;50.004;8.246;2023-04-25T00:46:20;7.70;99.90
10702;DHT22;5402;50.004;8.246;2023-04-25T00:48:47;7.80;99.90
10702;DHT22;5402;50.004;8.246;2023-04-25T00:51:16;7.80;99.90
10702;DHT22;5402;50.004;8.246;2023-04-25T00:53:46;7.80;99.90
10702;DHT22;5402;50.004;8.246;2023-04-25T00:56:14;7.90;99.90
10702;DHT22;5402;50.004;8.246;2023-04-25T00:58:41;7.80;99.90
10702;DHT22;5402;50.004;8.246;2023-04-25T01:01:10;7.80;99.90
10702;DHT22;5402;50.004;8.246;2023-04-25T01:03:38;7.90;99.90
10702;DHT22;5402;50.004;8.246;2023-04-25T01:06:07;7.90;99.90
10702;DHT22;5402;50.004;8.246;2023-04-25T01:08:34;7.80;99.90
10702;DHT22;5402;50.004;8.246;2023-04-25T01:11:01;7.80;99.90
10702;DHT22;5402;50.004;8.246;2023-04-25T01:13:28;7.90;99.90
10702;DHT22;5402;50.004;8.246;2023-04-25T01:15:55;7.80;99.90
10702;DHT22;5402;50.004;8.246;2023-04-25T01:18:23;7.90;99.90
10702;DHT22;5402;50.004;8.246;2023-04-25T01:20:51;7.90;99.90
10702;DHT22;5402;50.004;8.246;2023-04-25T01:23:20;8.00;99.90
10702;DHT22;5402;50.004;8.246;2023-04-25T01:25:48;8.00;99.90
10702;DHT22;5402;50.004;8.246;2023-04-25T01:28:15;8.00;99.90
10702;DHT22;5402;50.004;8.246;2023-04-25T01:30:44;8.00;99.90
10702;DHT22;5402;50.004;8.246;2023-04-25T01:33:11;8.00;99.90
10702;DHT22;5402;50.004;8.246;2023-04-25T01:35:40;7.90;99.90
10702;DHT22;5402;50.004;8.246;2023-04-25T01:38:07;7.90;99.90
10702;DHT22;5402;50.004;8.246;2023-04-25T01:40:38;8.00;99.90
10702;DHT22;5402;50.004;8.246;2023-04-25T01:43:05;8.00;99.90
10702;DHT22;5402;50.004;8.246;2023-04-25T01:45:33;8.00;99.90
10702;DHT22;5402;50.004;8.246;2023-04-25T01:48:01;8.00;99.90
10702;DHT22;5402;50.004;8.246;2023-04-25T01:50:28;8.00;99.90
10702;DHT22;5402;50.004;8.246;2023-04-25T01:52:55;7.90;99.90
10702;DHT22;5402;50.004;8.246;2023-04-25T01:55:22;7.90;99.90
10702;DHT22;5402;50.004;8.246;2023-04-25T01:57:50;7.90;99.90
10702;DHT22;5402;50.004;8.246;2023-04-25T02:00:18;7.90;99.90
10702;DHT22;5402;50.004;8.246;2023-04-25T02:02:44;7.90;99.90
10702;DHT22;5402;50.004;8.246;2023-04-25T02:05:11;7.90;99.90
10702;DHT22;5402;50.004;8.246;2023-04-25T02:07:38;7.80;99.90
10702;DHT22;5402;50.004;8.246;2023-04-25T02:10:05;7.70;99.90
10702;DHT22;5402;50.004;8.246;2023-04-25T02:12:32;7.80;99.90
10702;DHT22;5402;50.004;8.246;2023-04-25T02:15:00;7.80;99.90
10702;DHT22;5402;50.004;8.246;2023-04-25T02:17:27;7.80;99.90
10702;DHT22;5402;50.004;8.246;2023-04-25T02:19:53;7.90;99.90
10702;DHT22;5402;50.004;8.246;2023-04-25T02:22:20;7.80;99.90
10702;DHT22;5402;50.004;8.246;2023-04-25T02:24:47;7.80;99.90
10702;DHT22;5402;50.004;8.246;2023-04-25T02:27:14;7.80;99.90
10702;DHT22;5402;50.004;8.246;2023-04-25T02:29:40;7.80;99.90
10702;DHT22;5402;50.004;8.246;2023-04-25T02:32:08;7.80;99.90
10702;DHT22;5402;50.004;8.246;2023-04-25T02:34:35;7.80;99.90
10702;DHT22;5402;50.004;8.246;2023-04-25T02:37:02;7.80;99.90
10702;DHT22;5402;50.004;8.246;2023-04-25T02:39:29;7.80;99.90
10702;DHT22;5402;50.004;8.246;2023-04-25T02:41:56;7.80;99.90
10702;DHT22;5402;50.004;8.246;2023-04-25T02:44:22;7.70;99.90
10702;DHT22;5402;50.004;8.246;2023-04-25T02:46:49;7.70;99.90
10702;DHT22;5402;50.004;8.246;2023-04-25T02:49:17;7.60;99.90
10702;DHT22;5402;50.004;8.246;2023-04-25T02:51:44;7.60;99.90
10702;DHT22;5402;50.004;8.246;2023-04-25T02:54:10;7.40;99.90
10702;DHT22;5402;50.004;8.246;2023-04-25T02:56:37;7.30;99.90
10702;DHT22;5402;50.004;8.246;2023-04-25T02:59:04;7.20;99.90
10702;DHT22;5402;50.004;8.246;2023-04-25T03:01:30;7.20;99.90
10702;DHT22;5402;50.004;8.246;2023-04-25T03:03:57;7.20;99.90
10702;DHT22;5402;50.004;8.246;2023-04-25T03:06:26;7.30;99.90
10702;DHT22;5402;50.004;8.246;2023-04-25T03:08:53;7.40;99.90
10702;DHT22;5402;50.004;8.246;2023-04-25T03:11:20;7.40;99.90
10702;DHT22;5402;50.004;8.246;2023-04-25T03:13:46;7.40;99.90
10702;DHT22;5402;50.004;8.246;2023-04-25T03:16:13;7.40;99.90
10702;DHT22;5402;50.004;8.246;2023-04-25T03:18:41;7.40;99.90
10702;DHT22;5402;50.004;8.246;2023-04-25T03:21:07;7.30;99.90
10702;DHT22;5402;50.004;8.246;2023-04-25T03:23:36;7.30;99.90
10702;DHT22;5402;50.004;8.246;2023-04-25T03:26:03;7.30;99.90
10702;DHT22;5402;50.004;8.246;2023-04-25T03:28:29;7.40;99.90
10702;DHT22;5402;50.004;8.246;2023-04-25T03:30:58;7.20;99.90
10702;DHT22;5402;50.004;8.246;2023-04-25T03:33:25;7.10;99.90
10702;DHT22;5402;50.004;8.246;2023-04-25T03:35:52;7.10;99.90
10702;DHT22;5402;50.004;8.246;2023-04-25T03:38:19;7.10;99.90
10702;DHT22;5402;50.004;8.246;2023-04-25T03:40:47;7.10;99.90
10702;DHT22;5402;50.004;8.246;2023-04-25T03:43:14;7.00;99.90
10702;DHT22;5402;50.004;8.246;2023-04-25T03:45:40;7.10;99.90
10702;DHT22;5402;50.004;8.246;2023-04-25T03:48:07;7.10;99.90
10702;DHT22;5402;50.004;8.246;2023-04-25T03:50:34;7.10;99.90
10702;DHT22;5402;50.004;8.246;2023-04-25T03:53:01;7.10;99.90
10702;DHT22;5402;50.004;8.246;2023-04-25T03:55:28;7.00;99.90
10702;DHT22;5402;50.004;8.246;2023-04-25T03:57:57;6.90;99.90
10702;DHT22;5402;50.004;8.246;2023-04-25T04:00:24;6.80;99.90
10702;DHT22;5402;50.004;8.246;2023-04-25T04:02:51;6.80;99.90
10702;DHT22;5402;50.004;8.246;2023-04-25T04:05:17;6.70;99.90
10702;DHT22;5402;50.004;8.246;2023-04-25T04:07:44;6.80;99.90
10702;DHT22;5402;50.004;8.246;2023-04-25T04:10:11;6.80;99.90
10702;DHT22;5402;50.004;8.246;2023-04-25T04:12:38;6.80;99.90
10702;DHT22;5402;50.004;8.246;2023-04-25T04:15:07;6.90;99.90
10702;DHT22;5402;50.004;8.246;2023-04-25T04:17:34;6.90;99.90
10702;DHT22;5402;50.004;8.246;2023-04-25T04:20:01;6.90;99.90
10702;DHT22;5402;50.004;8.246;2023-04-25T04:22:29;7.00;99.90
10702;DHT22;5402;50.004;8.246;2023-04-25T04:24:55;7.00;99.90
10702;DHT22;5402;50.004;8.246;2023-04-25T04:27:23;7.00;99.90
10702;DHT22;5402;50.004;8.246;2023-04-25T04:29:49;7.00;99.90
10702;DHT22;5402;50.004;8.246;2023-04-25T04:32:19;7.00;99.90
10702;DHT22;5402;50.004;8.246;2023-04-25T04:34:45;7.00;99.90
10702;DHT22;5402;50.004;8.246;2023-04-25T04:37:14;7.00;99.90
10702;DHT22;5402;50.004;8.246;2023-04-25T04:39:40;7.00;99.90
10702;DHT22;5402;50.004;8.246;2023-04-25T04:42:07;7.00;99.90
10702;DHT22;5402;50.004;8.246;2023-04-25T04:44:34;7.00;99.90
10702;DHT22;5402;50.004;8.246;2023-04-25T04:47:03;6.90;99.90
10702;DHT22;5402;50.004;8.246;2023-04-25T04:49:33;6.90;99.90
10702;DHT22;5402;50.004;8.246;2023-04-25T04:51:59;6.90;99.90
10702;DHT22;5402;50.004;8.246;2023-04-25T04:54:26;6.90;99.90
10702;DHT22;5402;50.004;8.246;2023-04-25T04:56:53;7.00;99.90
10702;DHT22;5402;50.004;8.246;2023-04-25T04:59:20;6.90;99.90
10702;DHT22;5402;50.004;8.246;2023-04-25T05:01:46;6.90;99.90
10702;DHT22;5402;50.004;8.246;2023-04-25T05:04:13;6.80;99.90
10702;DHT22;5402;50.004;8.246;2023-04-25T05:06:42;6.80;99.90
10702;DHT22;5402;50.004;8.246;2023-04-25T05:09:10;6.90;99.90
10702;DHT22;5402;50.004;8.246;2023-04-25T05:11:36;6.90;99.90
10702;DHT22;5402;50.004;8.246;2023-04-25T05:14:03;7.00;99.90
10702;DHT22;5402;50.004;8.246;2023-04-25T05:16:30;7.00;99.90
10702;DHT22;5402;50.004;8.246;2023-04-25T05:18:56;7.00;99.90
10702;DHT22;5402;50.004;8.246;2023-04-25T05:21:23;7.00;99.90
10702;DHT22;5402;50.004;8.246;2023-04-25T05:23:52;7.10;99.90
10702;DHT22;5402;50.004;8.246;2023-04-25T05:26:18;7.20;99.90
10702;DHT22;5402;50.004;8.246;2023-04-25T05:28:46;7.20;99.90
10702;DHT22;5402;50.004;8.246;2023-04-25T05:31:13;7.20;99.90
10702;DHT22;5402;50.004;8.246;2023-04-25T05:33:40;7.40;99.90
10702;DHT22;5402;50.004;8.246;2023-04-25T05:36:07;7.40;99.90
10702;DHT22;5402;50.004;8.246;2023-04-25T05:38:34;7.50;99.90
10702;DHT22;5402;50.004;8.246;2023-04-25T05:41:02;7.50;99.90
10702;DHT22;5402;50.004;8.246;2023-04-25T05:43:29;7.30;99.90
10702;DHT22;5402;50.004;8.246;2023-04-25T05:45:55;7.40;99.90
10702;DHT22;5402;50.004;8.246;2023-04-25T05:48:22;7.40;99.90
10702;DHT22;5402;50.004;8.246;2023-04-25T05:50:49;7.40;99.90
10702;DHT22;5402;50.004;8.246;2023-04-25T05:53:16;7.40;99.90
10702;DHT22;5402;50.004;8.246;2023-04-25T05:55:43;7.50;99.90
10702;DHT22;5402;50.004;8.246;2023-04-25T05:58:11;7.50;99.90
10702;DHT22;5402;50.004;8.246;2023-04-25T06:00:38;7.60;99.90
10702;DHT22;5402;50.004;8.246;2023-04-25T06:03:07;7.50;99.90
10702;DHT22;5402;50.004;8.246;2023-04-25T06:05:35;7.60;99.90
10702;DHT22;5402;50.004;8.246;2023-04-25T06:08:01;7.60;99.90
10702;DHT22;5402;50.004;8.246;2023-04-25T06:10:28;7.60;99.90
10702;DHT22;5402;50.004;8.246;2023-04-25T06:12:55;7.70;99.90
10702;DHT22;5402;50.004;8.246;2023-04-25T06:15:23;7.70;99.90
10702;DHT22;5402;50.004;8.246;2023-04-25T06:17:50;7.70;99.90
10702;DHT22;5402;50.004;8.246;2023-04-25T06:20:17;7.80;99.90
10702;DHT22;5402;50.004;8.246;2023-04-25T06:22:45;7.90;99.90
10702;DHT22;5402;50.004;8.246;2023-04-25T06:25:11;7.90;99.90
10702;DHT22;5402;50.004;8.246;2023-04-25T06:27:38;7.90;99.90
10702;DHT22;5402;50.004;8.246;2023-04-25T06:30:06;7.90;99.90
10702;DHT22;5402;50.004;8.246;2023-04-25T06:32:34;8.00;99.90
10702;DHT22;5402;50.004;8.246;2023-04-25T06:35:01;8.00;99.90
10702;DHT22;5402;50.004;8.246;2023-04-25T06:37:28;8.10;99.90
10702;DHT22;5402;50.004;8.246;2023-04-25T06:39:55;8.00;99.90
10702;DHT22;5402;50.004;8.246;2023-04-25T06:42:22;8.20;99.90
10702;DHT22;5402;50.004;8.246;2023-04-25T06:44:50;8.30;99.90
10702;DHT22;5402;50.004;8.246;2023-04-25T06:47:16;8.40;99.90
10702;DHT22;5402;50.004;8.246;2023-04-25T06:49:44;8.50;99.90
10702;DHT22;5402;50.004;8.246;2023-04-25T06:52:11;8.60;99.90
10702;DHT22;5402;50.004;8.246;2023-04-25T06:54:38;8.70;99.90
10702;DHT22;5402;50.004;8.246;2023-04-25T06:57:05;8.80;99.90
10702;DHT22;5402;50.004;8.246;2023-04-25T06:59:31;8.90;99.90
10702;DHT22;5402;50.004;8.246;2023-04-25T07:01:59;9.00;99.90
10702;DHT22;5402;50.004;8.246;2023-04-25T07:04:25;9.00;99.90
10702;DHT22;5402;50.004;8.246;2023-04-25T07:06:53;8.90;99.90
10702;DHT22;5402;50.004;8.246;2023-04-25T07:09:20;8.60;99.90
10702;DHT22;5402;50.004;8.246;2023-04-25T07:11:47;8.90;99.90
10702;DHT22;5402;50.004;8.246;2023-04-25T07:14:13;8.90;99.90
10702;DHT22;5402;50.004;8.246;2023-04-25T07:16:40;9.10;99.90
10702;DHT22;5402;50.004;8.246;2023-04-25T07:19:07;9.30;99.90
10702;DHT22;5402;50.004;8.246;2023-04-25T07:21:34;9.20;99.90
10702;DHT22;5402;50.004;8.246;2023-04-25T07:24:03;9.20;99.90
10702;DHT22;5402;50.004;8.246;2023-04-25T07:26:30;9.50;99.90
10702;DHT22;5402;50.004;8.246;2023-04-25T07:28:57;9.70;99.90
10702;DHT22;5402;50.004;8.246;2023-04-25T07:31:24;9.80;99.90
10702;DHT22;5402;50.004;8.246;2023-04-25T07:33:51;9.60;99.90
10702;DHT22;5402;50.004;8.246;2023-04-25T07:36:17;9.80;99.90
10702;DHT22;5402;50.004;8.246;2023-04-25T07:38:44;9.90;99.90
10702;DHT22;5402;50.004;8.246;2023-04-25T07:41:12;10.00;99.90
10702;DHT22;5402;50.004;8.246;2023-04-25T07:43:39;9.90;99.90
10702;DHT22;5402;50.004;8.246;2023-04-25T07:46:05;10.10;99.90
10702;DHT22;5402;50.004;8.246;2023-04-25T07:48:32;10.10;99.90
10702;DHT22;5402;50.004;8.246;2023-04-25T07:50:59;9.40;99.90
10702;DHT22;5402;50.004;8.246;2023-04-25T07:53:25;9.50;99.90
10702;DHT22;5402;50.004;8.246;2023-04-25T07:55:52;9.70;99.90
10702;DHT22;5402;50.004;8.246;2023-04-25T07:58:20;9.90;99.90
10702;DHT22;5402;50.004;8.246;2023-04-25T08:00:47;10.10;99.90
10702;DHT22;5402;50.004;8.246;2023-04-25T08:03:14;10.00;99.90
10702;DHT22;5402;50.004;8.246;2023-04-25T08:05:41;9.80;99.90
10702;DHT22;5402;50.004;8.246;2023-04-25T08:08:07;9.90;99.90
10702;DHT22;5402;50.004;8.246;2023-04-25T08:10:34;10.00;99.90
10702;DHT22;5402;50.004;8.246;2023-04-25T08:13:01;10.00;99.90
10702;DHT22;5402;50.004;8.246;2023-04-25T08:15:29;10.00;99.90
10702;DHT22;5402;50.004;8.246;2023-04-25T08:17:56;10.20;99.90
10702;DHT22;5402;50.004;8.246;2023-04-25T08:20:24;10.00;99.90
10702;DHT22;5402;50.004;8.246;2023-04-25T08:22:51;10.20;99.90
10702;DHT22;5402;50.004;8.246;2023-04-25T08:25:18;10.40;99.90
10702;DHT22;5402;50.004;8.246;2023-04-25T08:27:44;10.60;99.90
10702;DHT22;5402;50.004;8.246;2023-04-25T08:30:11;10.70;99.90
10702;DHT22;5402;50.004;8.246;2023-04-25T08:32:40;10.80;99.90
10702;DHT22;5402;50.004;8.246;2023-04-25T08:35:07;11.20;99.90
10702;DHT22;5402;50.004;8.246;2023-04-25T08:37:34;11.30;99.90
10702;DHT22;5402;50.004;8.246;2023-04-25T08:40:01;11.40;99.90
10702;DHT22;5402;50.004;8.246;2023-04-25T08:42:33;11.50;99.90
10702;DHT22;5402;50.004;8.246;2023-04-25T08:45:03;11.30;99.90
10702;DHT22;5402;50.004;8.246;2023-04-25T08:47:33;10.90;99.90
10702;DHT22;5402;50.004;8.246;2023-04-25T08:50:02;10.90;99.90
10702;DHT22;5402;50.004;8.246;2023-04-25T08:52:35;10.90;99.90
10702;DHT22;5402;50.004;8.246;2023-04-25T08:55:03;10.70;99.90
10702;DHT22;5402;50.004;8.246;2023-04-25T08:57:31;10.60;99.90
10702;DHT22;5402;50.004;8.246;2023-04-25T09:00:01;10.60;99.90
10702;DHT22;5402;50.004;8.246;2023-04-25T09:02:29;10.70;99.90
10702;DHT22;5402;50.004;8.246;2023-04-25T09:04:56;10.90;99.90
10702;DHT22;5402;50.004;8.246;2023-04-25T09:07:24;11.00;99.90
10702;DHT22;5402;50.004;8.246;2023-04-25T09:09:51;11.10;99.90
10702;DHT22;5402;50.004;8.246;2023-04-25T09:12:18;10.90;99.90
10702;DHT22;5402;50.004;8.246;2023-04-25T09:15:01;11.00;99.90
10702;DHT22;5402;50.004;8.246;2023-04-25T09:17:29;10.80;99.90
10702;DHT22;5402;50.004;8.246;2023-04-25T09:20:05;10.90;99.90
10702;DHT22;5402;50.004;8.246;2023-04-25T09:22:34;10.80;99.90
10702;DHT22;5402;50.004;8.246;2023-04-25T09:25:02;11.20;99.90
10702;DHT22;5402;50.004;8.246;2023-04-25T09:27:29;11.70;99.90
10702;DHT22;5402;50.004;8.246;2023-04-25T09:29:57;11.70;99.90
10702;DHT22;5402;50.004;8.246;2023-04-25T09:32:25;11.70;99.90
10702;DHT22;5402;50.004;8.246;2023-04-25T09:34:53;11.40;99.90
10702;DHT22;5402;50.004;8.246;2023-04-25T09:37:21;11.40;99.90
10702;DHT22;5402;50.004;8.246;2023-04-25T09:39:52;11.20;99.90
10702;DHT22;5402;50.004;8.246;2023-04-25T09:42:22;11.40;99.90
10702;DHT22;5402;50.004;8.246;2023-04-25T09:44:52;11.30;99.90
10702;DHT22;5402;50.004;8.246;2023-04-25T09:47:19;11.30;99.90
10702;DHT22;5402;50.004;8.246;2023-04-25T09:49:47;11.30;99.90
10702;DHT22;5402;50.004;8.246;2023-04-25T09:52:15;11.30;99.90
10702;DHT22;5402;50.004;8.246;2023-04-25T09:54:42;11.40;99.90
10702;DHT22;5402;50.004;8.246;2023-04-25T09:57:16;11.10;99.90
10702;DHT22;5402;50.004;8.246;2023-04-25T09:59:44;11.30;99.90
10702;DHT22;5402;50.004;8.246;2023-04-25T10:02:12;11.20;99.90
10702;DHT22;5402;50.004;8.246;2023-04-25T10:04:39;11.10;99.90
10702;DHT22;5402;50.004;8.246;2023-04-25T10:07:08;10.90;99.90
10702;DHT22;5402;50.004;8.246;2023-04-25T10:09:37;11.00;99.90
10702;DHT22;5402;50.004;8.246;2023-04-25T10:12:05;10.90;99.90
10702;DHT22;5402;50.004;8.246;2023-04-25T10:14:34;10.70;99.90
10702;DHT22;5402;50.004;8.246;2023-04-25T10:17:02;10.80;99.90
10702;DHT22;5402;50.004;8.246;2023-04-25T10:19:29;10.70;99.90
10702;DHT22;5402;50.004;8.246;2023-04-25T10:22:03;11.10;99.90
10702;DHT22;5402;50.004;8.246;2023-04-25T10:24:30;11.30;99.90
10702;DHT22;5402;50.004;8.246;2023-04-25T10:26:58;11.20;99.90
10702;DHT22;5402;50.004;8.246;2023-04-25T10:29:26;11.10;99.90
10702;DHT22;5402;50.004;8.246;2023-04-25T10:31:54;11.20;99.90
10702;DHT22;5402;50.004;8.246;2023-04-25T10:34:24;11.20;99.90
10702;DHT22;5402;50.004;8.246;2023-04-25T10:36:52;11.10;99.90
10702;DHT22;5402;50.004;8.246;2023-04-25T10:39:23;11.20;99.90
10702;DHT22;5402;50.004;8.246;2023-04-25T10:41:55;10.80;99.90
10702;DHT22;5402;50.004;8.246;2023-04-25T10:44:26;10.90;99.90
10702;DHT22;5402;50.004;8.246;2023-04-25T10:46:55;10.80;99.90
10702;DHT22;5402;50.004;8.246;2023-04-25T10:49:30;10.70;99.90
10702;DHT22;5402;50.004;8.246;2023-04-25T10:52:14;10.70;99.90
10702;DHT22;5402;50.004;8.246;2023-04-25T10:54:42;10.40;99.90
10702;DHT22;5402;50.004;8.246;2023-04-25T10:57:31;10.50;99.90
10702;DHT22;5402;50.004;8.246;2023-04-25T11:00:06;10.70;99.90
10702;DHT22;5402;50.004;8.246;2023-04-25T11:02:41;10.80;99.90
10702;DHT22;5402;50.004;8.246;2023-04-25T11:05:09;10.90;99.90
10702;DHT22;5402;50.004;8.246;2023-04-25T11:07:38;11.00;99.90
10702;DHT22;5402;50.004;8.246;2023-04-25T11:10:10;11.50;99.90
10702;DHT22;5402;50.004;8.246;2023-04-25T11:12:36;11.70;99.90
10702;DHT22;5402;50.004;8.246;2023-04-25T11:15:04;11.90;99.90
10702;DHT22;5402;50.004;8.246;2023-04-25T11:17:33;11.60;99.90
10702;DHT22;5402;50.004;8.246;2023-04-25T11:20:02;11.60;99.90
10702;DHT22;5402;50.004;8.246;2023-04-25T11:22:32;11.60;99.90
10702;DHT22;5402;50.004;8.246;2023-04-25T11:25:05;11.60;99.90
10702;DHT22;5402;50.004;8.246;2023-04-25T11:27:32;11.60;99.90
10702;DHT22;5402;50.004;8.246;2023-04-25T11:29:59;11.50;99.90
10702;DHT22;5402;50.004;8.246;2023-04-25T11:32:25;11.50;99.90
10702;DHT22;5402;50.004;8.246;2023-04-25T11:34:52;11.50;99.90
10702;DHT22;5402;50.004;8.246;2023-04-25T11:37:21;11.10;99.90
10702;DHT22;5402;50.004;8.246;2023-04-25T11:39:47;11.40;99.90
10702;DHT22;5402;50.004;8.246;2023-04-25T11:42:14;11.50;99.90
10702;DHT22;5402;50.004;8.246;2023-04-25T11:44:41;11.60;99.90
10702;DHT22;5402;50.004;8.246;2023-04-25T11:47:08;11.40;99.90
10702;DHT22;5402;50.004;8.246;2023-04-25T11:49:35;11.60;99.90
10702;DHT22;5402;50.004;8.246;2023-04-25T11:52:02;11.60;99.90
10702;DHT22;5402;50.004;8.246;2023-04-25T11:54:30;11.40;99.90
10702;DHT22;5402;50.004;8.246;2023-04-25T11:56:57;11.00;99.90
10702;DHT22;5402;50.004;8.246;2023-04-25T11:59:25;10.90;99.90
10702;DHT22;5402;50.004;8.246;2023-04-25T12:01:52;10.60;99.90
10702;DHT22;5402;50.004;8.246;2023-04-25T12:04:20;10.50;99.90
10702;DHT22;5402;50.004;8.246;2023-04-25T12:06:51;10.60;99.90
10702;DHT22;5402;50.004;8.246;2023-04-25T12:09:19;10.60;99.90
10702;DHT22;5402;50.004;8.246;2023-04-25T12:11:53;10.80;99.90
10702;DHT22;5402;50.004;8.246;2023-04-25T12:14:22;10.70;99.90
10702;DHT22;5402;50.004;8.246;2023-04-25T12:16:49;10.90;99.90
10702;DHT22;5402;50.004;8.246;2023-04-25T12:19:18;11.00;99.90
10702;DHT22;5402;50.004;8.246;2023-04-25T12:21:45;11.60;99.90
10702;DHT22;5402;50.004;8.246;2023-04-25T12:24:14;11.50;99.90
10702;DHT22;5402;50.004;8.246;2023-04-25T12:26:50;11.80;99.90
10702;DHT22;5402;50.004;8.246;2023-04-25T12:29:18;12.00;99.90
10702;DHT22;5402;50.004;8.246;2023-04-25T12:31:45;11.90;99.90
10702;DHT22;5402;50.004;8.246;2023-04-25T12:34:12;11.70;99.90
10702;DHT22;5402;50.004;8.246;2023-04-25T12:36:39;11.70;99.90
10702;DHT22;5402;50.004;8.246;2023-04-25T12:39:06;11.50;99.90
10702;DHT22;5402;50.004;8.246;2023-04-25T12:41:33;11.80;99.90
10702;DHT22;5402;50.004;8.246;2023-04-25T12:44:01;11.60;99.90
10702;DHT22;5402;50.004;8.246;2023-04-25T12:46:28;11.60;99.90
10702;DHT22;5402;50.004;8.246;2023-04-25T12:48:55;11.80;99.90
10702;DHT22;5402;50.004;8.246;2023-04-25T12:51:22;11.40;99.90
10702;DHT22;5402;50.004;8.246;2023-04-25T12:53:50;11.20;99.90
10702;DHT22;5402;50.004;8.246;2023-04-25T12:56:18;11.10;99.90
10702;DHT22;5402;50.004;8.246;2023-04-25T12:58:45;11.20;99.90
10702;DHT22;5402;50.004;8.246;2023-04-25T13:01:14;11.40;99.90
10702;DHT22;5402;50.004;8.246;2023-04-25T13:03:41;11.60;99.90
10702;DHT22;5402;50.004;8.246;2023-04-25T13:06:08;11.40;99.90
10702;DHT22;5402;50.004;8.246;2023-04-25T13:08:35;11.30;99.90
10702;DHT22;5402;50.004;8.246;2023-04-25T13:11:03;11.20;99.90
10702;DHT22;5402;50.004;8.246;2023-04-25T13:13:30;11.40;99.90
10702;DHT22;5402;50.004;8.246;2023-04-25T13:15:57;11.50;99.90
10702;DHT22;5402;50.004;8.246;2023-04-25T13:18:25;11.50;99.90
10702;DHT22;5402;50.004;8.246;2023-04-25T13:20:52;11.70;99.90
10702;DHT22;5402;50.004;8.246;2023-04-25T13:23:20;11.90;99.90
10702;DHT22;5402;50.004;8.246;2023-04-25T13:25:47;12.10;99.90
10702;DHT22;5402;50.004;8.246;2023-04-25T13:28:14;12.10;99.90
10702;DHT22;5402;50.004;8.246;2023-04-25T13:30:42;12.00;99.90
10702;DHT22;5402;50.004;8.246;2023-04-25T13:33:08;11.70;99.90
10702;DHT22;5402;50.004;8.246;2023-04-25T13:35:37;11.80;99.90
10702;DHT22;5402;50.004;8.246;2023-04-25T13:38:04;11.70;99.90
10702;DHT22;5402;50.004;8.246;2023-04-25T13:40:31;11.90;99.90
10702;DHT22;5402;50.004;8.246;2023-04-25T13:42:58;12.10;99.90
10702;DHT22;5402;50.004;8.246;2023-04-25T13:45:25;11.90;99.90
10702;DHT22;5402;50.004;8.246;2023-04-25T13:47:53;11.90;99.90
10702;DHT22;5402;50.004;8.246;2023-04-25T13:50:20;11.90;99.90
10702;DHT22;5402;50.004;8.246;2023-04-25T13:52:48;11.60;99.90
10702;DHT22;5402;50.004;8.246;2023-04-25T13:55:15;11.60;99.90
10702;DHT22;5402;50.004;8.246;2023-04-25T13:57:42;11.50;99.90
10702;DHT22;5402;50.004;8.246;2023-04-25T14:00:10;11.60;99.90
10702;DHT22;5402;50.004;8.246;2023-04-25T14:02:37;11.50;99.90
10702;DHT22;5402;50.004;8.246;2023-04-25T14:05:04;11.70;99.90
10702;DHT22;5402;50.004;8.246;2023-04-25T14:07:32;11.70;99.90
10702;DHT22;5402;50.004;8.246;2023-04-25T14:10:01;11.50;99.90
10702;DHT22;5402;50.004;8.246;2023-04-25T14:12:29;11.60;99.90
10702;DHT22;5402;50.004;8.246;2023-04-25T14:14:56;11.70;99.90
10702;DHT22;5402;50.004;8.246;2023-04-25T14:17:23;11.70;99.90
10702;DHT22;5402;50.004;8.246;2023-04-25T14:19:50;11.90;99.90
10702;DHT22;5402;50.004;8.246;2023-04-25T14:22:16;11.90;99.90
10702;DHT22;5402;50.004;8.246;2023-04-25T14:24:44;12.00;99.90
10702;DHT22;5402;50.004;8.246;2023-04-25T14:27:12;12.10;99.90
10702;DHT22;5402;50.004;8.246;2023-04-25T14:29:39;12.30;99.90
10702;DHT22;5402;50.004;8.246;2023-04-25T14:32:05;12.40;99.90
10702;DHT22;5402;50.004;8.246;2023-04-25T14:34:32;12.30;99.90
10702;DHT22;5402;50.004;8.246;2023-04-25T14:36:59;12.20;99.90
10702;DHT22;5402;50.004;8.246;2023-04-25T14:39:26;12.00;99.90
10702;DHT22;5402;50.004;8.246;2023-04-25T14:41:53;11.80;99.90
10702;DHT22;5402;50.004;8.246;2023-04-25T14:44:21;11.70;99.90
10702;DHT22;5402;50.004;8.246;2023-04-25T14:46:47;11.70;99.90
10702;DHT22;5402;50.004;8.246;2023-04-25T14:49:17;11.70;99.90
10702;DHT22;5402;50.004;8.246;2023-04-25T14:51:43;11.60;99.90
10702;DHT22;5402;50.004;8.246;2023-04-25T14:54:10;11.50;99.90
10702;DHT22;5402;50.004;8.246;2023-04-25T14:56:37;11.50;99.90
10702;DHT22;5402;50.004;8.246;2023-04-25T14:59:04;11.40;99.90
10702;DHT22;5402;50.004;8.246;2023-04-25T15:01:32;11.50;99.90
10702;DHT22;5402;50.004;8.246;2023-04-25T15:04:00;11.70;99.90
10702;DHT22;5402;50.004;8.246;2023-04-25T15:06:26;12.00;99.90
10702;DHT22;5402;50.004;8.246;2023-04-25T15:08:54;12.20;99.90
10702;DHT22;5402;50.004;8.246;2023-04-25T15:11:22;11.90;99.90
10702;DHT22;5402;50.004;8.246;2023-04-25T15:13:49;11.90;99.90
10702;DHT22;5402;50.004;8.246;2023-04-25T15:16:16;11.70;99.90
10702;DHT22;5402;50.004;8.246;2023-04-25T15:18:44;11.70;99.90
10702;DHT22;5402;50.004;8.246;2023-04-25T15:21:10;11.70;99.90
10702;DHT22;5402;50.004;8.246;2023-04-25T15:23:37;11.80;99.90
10702;DHT22;5402;50.004;8.246;2023-04-25T15:26:04;11.80;99.90
10702;DHT22;5402;50.004;8.246;2023-04-25T15:28:31;11.90;99.90
10702;DHT22;5402;50.004;8.246;2023-04-25T15:30:59;11.80;99.90
10702;DHT22;5402;50.004;8.246;2023-04-25T15:33:26;12.10;99.90
10702;DHT22;5402;50.004;8.246;2023-04-25T15:35:54;12.40;99.90
10702;DHT22;5402;50.004;8.246;2023-04-25T15:38:21;12.20;99.40
10702;DHT22;5402;50.004;8.246;2023-04-25T15:40:48;12.30;99.30
10702;DHT22;5402;50.004;8.246;2023-04-25T15:43:15;12.30;98.60
10702;DHT22;5402;50.004;8.246;2023-04-25T15:45:41;12.00;97.80
10702;DHT22;5402;50.004;8.246;2023-04-25T15:48:08;12.30;98.50
10702;DHT22;5402;50.004;8.246;2023-04-25T15:50:35;12.60;97.80
10702;DHT22;5402;50.004;8.246;2023-04-25T15:53:05;12.80;98.00
10702;DHT22;5402;50.004;8.246;2023-04-25T15:55:31;12.90;97.80
10702;DHT22;5402;50.004;8.246;2023-04-25T15:57:58;12.90;97.00